createdAt,value
2018-11-01T00:01:58.100Z,99.90
2018-11-01T00:04:25.807Z,99.90
2018-11-01T00:06:53.376Z,99.90
2018-11-01T00:09:21.061Z,99.90
2018-11-01T00:11:48.693Z,99.90
2018-11-01T00:14:16.340Z,99.90
2018-11-01T00:16:43.956Z,99.90
2018-11-01T00:19:11.541Z,99.90
2018-11-01T00:21:39.144Z,99.90
2018-11-01T00:24:06.843Z,99.90
2018-11-01T00:26:34.545Z,99.90
2018-11-01T00:29:02.249Z,99.90
2018-11-01T00:31:30.899Z,99.90
2018-11-01T00:33:58.525Z,99.90
2018-11-01T00:36:26.231Z,99.90
2018-11-01T00:38:53.832Z,99.90
2018-11-01T00:41:21.470Z,99.90
2018-11-01T00:43:49.204Z,99.90
2018-11-01T00:46:16.879Z,99.90
2018-11-01T00:48:44.426Z,99.90
2018-11-01T00:51:12.135Z,99.90
2018-11-01T00:53:39.729Z,99.90
2018-11-01T00:56:07.291Z,99.90
2018-11-01T00:58:34.824Z,99.90
2018-11-01T01:01:02.524Z,99.90
2018-11-01T01:03:30.226Z,99.90
2018-11-01T01:05:57.770Z,99.90
2018-11-01T01:08:25.410Z,99.90
2018-11-01T01:10:53.023Z,99.90
2018-11-01T01:13:20.707Z,99.90
2018-11-01T01:15:48.321Z,99.90
2018-11-01T01:18:15.891Z,99.90
2018-11-01T01:20:43.531Z,99.90
2018-11-01T01:23:11.155Z,99.90
2018-11-01T01:25:38.784Z,99.90
2018-11-01T01:28:06.553Z,99.90
2018-11-01T01:30:34.220Z,99.90
2018-11-01T01:33:01.813Z,99.90
2018-11-01T01:35:29.503Z,99.90
2018-11-01T01:37:57.087Z,99.90
2018-11-01T01:40:24.856Z,99.90
2018-11-01T01:42:54.335Z,99.90
2018-11-01T01:45:22.718Z,99.90
2018-11-01T01:47:50.454Z,99.90
2018-11-01T01:50:18.876Z,99.90
2018-11-01T01:52:49.059Z,99.90
2018-11-01T01:55:18.122Z,99.90
2018-11-01T01:57:47.978Z,99.90
2018-11-01T02:00:18.149Z,99.90
2018-11-01T02:02:47.130Z,99.90
2018-11-01T02:05:14.831Z,99.90
2018-11-01T02:07:43.972Z,99.90
2018-11-01T02:10:13.783Z,99.90
2018-11-01T02:12:41.421Z,99.90
2018-11-01T02:15:11.069Z,99.90
2018-11-01T02:17:38.671Z,99.90
2018-11-01T02:20:08.173Z,99.90
2018-11-01T02:22:35.723Z,99.90
2018-11-01T02:25:03.291Z,99.90
2018-11-01T02:27:36.685Z,99.90
2018-11-01T02:30:06.415Z,99.90
2018-11-01T02:32:33.984Z,99.90
2018-11-01T02:35:01.573Z,99.90
2018-11-01T02:37:29.179Z,99.90
2018-11-01T02:39:56.666Z,99.90
2018-11-01T02:42:24.285Z,99.90
2018-11-01T02:44:51.803Z,99.90
2018-11-01T02:47:19.405Z,99.90
2018-11-01T02:49:46.922Z,99.90
2018-11-01T02:52:14.516Z,99.90
2018-11-01T02:54:42.003Z,99.90
2018-11-01T02:57:09.566Z,99.90
2018-11-01T02:59:37.109Z,99.90
2018-11-01T03:02:04.782Z,99.90
2018-11-01T03:04:32.263Z,99.90
2018-11-01T03:06:59.784Z,99.90
2018-11-01T03:09:27.373Z,99.90
2018-11-01T03:11:54.861Z,99.90
2018-11-01T03:14:22.413Z,99.90
2018-11-01T03:16:50.015Z,99.90
2018-11-01T03:19:17.551Z,99.90
2018-11-01T03:21:45.036Z,99.90
2018-11-01T03:24:12.519Z,99.90
2018-11-01T03:26:40.051Z,99.90
2018-11-01T03:29:07.516Z,99.90
2018-11-01T03:31:35.085Z,99.90
2018-11-01T03:34:02.551Z,99.90
2018-11-01T03:36:30.147Z,99.90
2018-11-01T03:38:57.694Z,99.90
2018-11-01T03:41:25.181Z,99.90
2018-11-01T03:43:52.667Z,99.90
2018-11-01T03:46:20.214Z,99.90
2018-11-01T03:48:47.786Z,99.90
2018-11-01T03:51:15.336Z,99.90
2018-11-01T03:53:42.905Z,99.90
2018-11-01T03:56:10.439Z,99.90
2018-11-01T03:58:37.961Z,99.90
2018-11-01T04:01:05.613Z,99.90
2018-11-01T04:03:33.153Z,99.90
2018-11-01T04:06:00.681Z,99.90
2018-11-01T04:08:28.218Z,99.90
2018-11-01T04:10:55.755Z,99.90
2018-11-01T04:13:23.291Z,99.90
2018-11-01T04:15:50.874Z,99.90
2018-11-01T04:18:18.362Z,99.90
2018-11-01T04:20:45.921Z,99.90
2018-11-01T04:23:13.498Z,99.90
2018-11-01T04:25:40.982Z,99.90
2018-11-01T04:28:08.584Z,99.90
2018-11-01T04:30:36.082Z,99.90
2018-11-01T04:33:03.690Z,99.90
2018-11-01T04:35:31.189Z,99.90
2018-11-01T04:37:58.776Z,99.90
2018-11-01T04:40:26.344Z,99.90
2018-11-01T04:42:53.816Z,99.90
2018-11-01T04:45:21.380Z,99.90
2018-11-01T04:47:49.148Z,99.90
2018-11-01T04:50:16.489Z,99.90
2018-11-01T04:52:43.972Z,99.90
2018-11-01T04:55:11.470Z,99.90
2018-11-01T04:57:39.442Z,99.90
2018-11-01T05:00:08.891Z,99.90
2018-11-01T05:02:36.446Z,99.90
2018-11-01T05:05:04.028Z,99.90
2018-11-01T05:07:31.520Z,99.90
2018-11-01T05:09:59.016Z,99.90
2018-11-01T05:12:26.515Z,99.90
2018-11-01T05:14:54.084Z,99.90
2018-11-01T05:17:21.588Z,99.90
2018-11-01T05:19:49.151Z,99.90
2018-11-01T05:22:16.648Z,99.90
2018-11-01T05:24:44.207Z,99.90
2018-11-01T05:27:11.686Z,99.90
2018-11-01T05:29:39.300Z,99.90
2018-11-01T05:32:06.909Z,99.90
2018-11-01T05:34:34.533Z,99.90
2018-11-01T05:37:02.013Z,99.90
2018-11-01T05:39:29.522Z,99.90
2018-11-01T05:41:57.113Z,99.90
2018-11-01T05:44:24.641Z,99.90
2018-11-01T05:46:52.142Z,99.90
2018-11-01T05:49:19.675Z,99.90
2018-11-01T05:51:47.161Z,99.90
2018-11-01T05:54:14.724Z,99.90
2018-11-01T05:56:42.256Z,99.90
2018-11-01T05:59:09.861Z,99.90
2018-11-01T06:01:42.806Z,99.90
2018-11-01T06:04:10.307Z,99.90
2018-11-01T06:06:37.868Z,99.90
2018-11-01T06:09:08.640Z,99.90
2018-11-01T06:11:36.186Z,99.90
2018-11-01T06:14:03.838Z,99.90
2018-11-01T06:16:31.462Z,99.90
2018-11-01T06:18:59.024Z,99.90
2018-11-01T06:21:26.561Z,99.90
2018-11-01T06:23:54.151Z,99.90
2018-11-01T06:26:21.724Z,99.90
2018-11-01T06:28:49.223Z,99.90
2018-11-01T06:31:16.743Z,99.90
2018-11-01T06:33:44.312Z,99.90
2018-11-01T06:36:14.030Z,99.90
2018-11-01T06:38:41.572Z,99.90
2018-11-01T06:41:09.145Z,99.90
2018-11-01T06:43:36.612Z,99.90
2018-11-01T06:46:05.430Z,99.90
2018-11-01T06:48:32.932Z,99.90
2018-11-01T06:51:00.490Z,99.90
2018-11-01T06:53:28.803Z,99.90
2018-11-01T06:55:56.312Z,99.90
2018-11-01T06:58:23.871Z,99.90
2018-11-01T07:00:51.383Z,99.90
2018-11-01T07:03:18.916Z,99.90
2018-11-01T07:05:46.485Z,99.90
2018-11-01T07:08:13.937Z,99.90
2018-11-01T07:10:41.529Z,99.90
2018-11-01T07:13:09.026Z,99.90
2018-11-01T07:15:36.584Z,99.90
2018-11-01T07:18:04.300Z,99.90
2018-11-01T07:20:31.815Z,99.90
2018-11-01T07:22:59.377Z,99.90
2018-11-01T07:25:27.028Z,99.90
2018-11-01T07:27:54.448Z,99.90
2018-11-01T07:30:22.009Z,99.90
2018-11-01T07:32:49.598Z,99.90
2018-11-01T07:35:17.132Z,99.90
2018-11-01T07:37:45.456Z,99.90
2018-11-01T07:40:16.194Z,99.90
2018-11-01T07:42:43.729Z,99.90
2018-11-01T07:45:11.977Z,99.90
2018-11-01T07:47:40.510Z,99.90
2018-11-01T07:50:08.980Z,99.90
2018-11-01T07:52:36.692Z,99.90
2018-11-01T07:55:04.764Z,99.90
2018-11-01T07:57:32.315Z,99.90
2018-11-01T07:59:59.780Z,99.90
2018-11-01T08:02:28.290Z,99.90
2018-11-01T08:04:55.800Z,99.90
2018-11-01T08:07:23.436Z,99.90
2018-11-01T08:09:50.923Z,99.90
2018-11-01T08:12:18.465Z,99.90
2018-11-01T08:14:46.085Z,99.90
2018-11-01T08:17:13.551Z,99.90
2018-11-01T08:19:41.206Z,99.90
2018-11-01T08:22:08.701Z,99.90
2018-11-01T08:24:36.283Z,99.90
2018-11-01T08:27:03.820Z,99.90
2018-11-01T08:29:31.506Z,99.90
2018-11-01T08:32:00.055Z,99.90
2018-11-01T08:34:27.684Z,99.90
2018-11-01T08:36:55.253Z,99.90
2018-11-01T08:39:22.846Z,99.90
2018-11-01T08:41:50.334Z,99.90
2018-11-01T08:44:17.879Z,99.90
2018-11-01T08:46:45.497Z,99.90
2018-11-01T08:49:13.346Z,99.90
2018-11-01T08:51:40.938Z,99.90
2018-11-01T08:54:08.412Z,99.90
2018-11-01T08:56:36.042Z,99.90
2018-11-01T08:59:03.586Z,99.90
2018-11-01T09:01:31.108Z,99.90
2018-11-01T09:03:58.600Z,99.90
2018-11-01T09:06:26.102Z,99.90
2018-11-01T09:08:55.623Z,99.90
2018-11-01T09:11:23.753Z,99.90
2018-11-01T09:13:51.355Z,99.90
2018-11-01T09:16:20.068Z,99.90
2018-11-01T09:18:47.578Z,99.90
2018-11-01T09:21:15.139Z,99.90
2018-11-01T09:23:42.618Z,99.90
2018-11-01T09:26:10.147Z,99.90
2018-11-01T09:28:39.195Z,99.90
2018-11-01T09:31:07.089Z,99.90
2018-11-01T09:33:34.602Z,99.90
2018-11-01T09:36:02.141Z,99.90
2018-11-01T09:38:29.617Z,99.90
2018-11-01T09:40:57.162Z,99.90
2018-11-01T09:43:24.658Z,99.90
2018-11-01T09:46:55.824Z,99.90
2018-11-01T09:49:23.078Z,99.90
2018-11-01T09:51:50.711Z,99.90
2018-11-01T09:54:18.232Z,99.90
2018-11-01T09:56:45.844Z,99.90
2018-11-01T09:59:13.312Z,99.90
2018-11-01T10:01:40.789Z,99.90
2018-11-01T10:04:08.879Z,99.90
2018-11-01T10:06:36.458Z,99.90
2018-11-01T10:09:05.827Z,99.90
2018-11-01T10:11:33.493Z,99.90
2018-11-01T10:14:00.997Z,99.90
2018-11-01T10:16:28.794Z,99.90
2018-11-01T10:18:56.087Z,99.90
2018-11-01T10:21:25.686Z,99.90
2018-11-01T10:23:53.138Z,99.90
2018-11-01T10:26:20.803Z,99.90
2018-11-01T10:28:48.307Z,99.90
2018-11-01T10:31:15.848Z,99.90
2018-11-01T10:33:43.425Z,99.90
2018-11-01T10:36:10.916Z,99.90
2018-11-01T10:38:38.432Z,99.90
2018-11-01T10:41:05.965Z,99.90
2018-11-01T10:43:33.433Z,99.90
2018-11-01T10:46:00.946Z,99.90
2018-11-01T10:48:28.468Z,99.90
2018-11-01T10:50:56.003Z,99.90
2018-11-01T10:53:23.550Z,99.90
2018-11-01T10:55:51.161Z,99.90
2018-11-01T10:58:18.778Z,99.90
2018-11-01T11:00:52.247Z,99.90
2018-11-01T11:03:19.703Z,99.90
2018-11-01T11:05:47.282Z,99.90
2018-11-01T11:08:14.787Z,99.90
2018-11-01T11:10:42.368Z,99.90
2018-11-01T11:13:10.957Z,99.90
2018-11-01T11:15:38.469Z,99.90
2018-11-01T11:18:06.334Z,99.90
2018-11-01T11:20:34.261Z,99.90
2018-11-01T11:23:01.547Z,99.90
2018-11-01T11:25:29.182Z,99.90
2018-11-01T11:27:56.689Z,99.90
2018-11-01T11:30:24.297Z,99.90
2018-11-01T11:32:51.745Z,99.90
2018-11-01T11:35:19.266Z,99.90
2018-11-01T11:37:46.864Z,99.90
2018-11-01T11:40:14.345Z,99.90
2018-11-01T11:42:41.929Z,99.90
2018-11-01T11:45:10.675Z,99.90
2018-11-01T11:47:38.241Z,99.90
2018-11-01T11:50:07.136Z,99.90
2018-11-01T11:52:34.729Z,99.90
2018-11-01T11:55:02.204Z,99.90
2018-11-01T11:57:29.706Z,99.90
2018-11-01T11:59:57.212Z,99.90
2018-11-01T12:02:24.790Z,99.90
2018-11-01T12:04:52.207Z,99.90
2018-11-01T12:07:19.779Z,99.90
2018-11-01T12:09:47.294Z,99.90
2018-11-01T12:12:14.823Z,99.90
2018-11-01T12:14:42.364Z,99.90
2018-11-01T12:17:10.034Z,99.90
2018-11-01T12:19:38.604Z,99.90
2018-11-01T12:22:06.224Z,99.90
2018-11-01T12:24:33.727Z,99.90
2018-11-01T12:27:01.333Z,99.90
2018-11-01T12:29:28.834Z,99.90
2018-11-01T12:31:56.403Z,99.90
2018-11-01T12:34:25.021Z,99.90
2018-11-01T12:36:52.823Z,99.90
2018-11-01T12:39:20.350Z,99.90
2018-11-01T12:41:47.843Z,99.90
2018-11-01T12:44:15.383Z,99.90
2018-11-01T12:46:42.912Z,99.90
2018-11-01T12:49:10.440Z,99.70
2018-11-01T12:51:37.957Z,99.40
2018-11-01T12:54:05.451Z,99.20
2018-11-01T12:56:33.148Z,98.90
2018-11-01T12:59:00.536Z,98.50
2018-11-01T13:01:28.019Z,98.80
2018-11-01T13:03:55.587Z,98.90
2018-11-01T13:06:23.108Z,98.70
2018-11-01T13:08:50.591Z,98.20
2018-11-01T13:11:18.068Z,98.20
2018-11-01T13:13:45.545Z,98.10
2018-11-01T13:16:13.038Z,98.20
2018-11-01T13:18:40.550Z,98.30
2018-11-01T13:21:08.113Z,98.50
2018-11-01T13:23:35.611Z,98.40
2018-11-01T13:26:03.280Z,98.70
2018-11-01T13:28:30.842Z,98.60
2018-11-01T13:30:58.336Z,98.50
2018-11-01T13:33:25.841Z,98.60
2018-11-01T13:35:53.382Z,99.20
2018-11-01T13:38:20.855Z,99.30
2018-11-01T13:40:48.757Z,99.30
2018-11-01T13:43:15.990Z,99.90
2018-11-01T13:45:43.459Z,99.90
2018-11-01T13:48:11.095Z,99.90
2018-11-01T13:50:38.462Z,99.90
2018-11-01T13:53:06.071Z,99.90
2018-11-01T13:55:33.601Z,99.90
2018-11-01T13:58:01.374Z,99.90
2018-11-01T14:00:28.908Z,99.90
2018-11-01T14:02:56.401Z,99.90
2018-11-01T14:05:24.026Z,99.90
2018-11-01T14:07:51.504Z,99.90
2018-11-01T14:10:18.974Z,99.90
2018-11-01T14:12:46.491Z,99.90
2018-11-01T14:15:14.421Z,99.90
2018-11-01T14:17:41.687Z,99.90
2018-11-01T14:20:10.424Z,99.90
2018-11-01T14:22:37.952Z,99.90
2018-11-01T14:25:06.566Z,99.90
2018-11-01T14:27:34.151Z,99.90
2018-11-01T14:30:01.841Z,99.90
2018-11-01T14:32:29.600Z,99.90
2018-11-01T14:34:57.300Z,99.90
2018-11-01T14:37:24.930Z,99.90
2018-11-01T14:39:52.419Z,99.90
2018-11-01T14:42:20.012Z,99.90
2018-11-01T14:44:47.537Z,99.90
2018-11-01T14:47:15.100Z,99.90
2018-11-01T14:49:42.639Z,99.90
2018-11-01T14:52:10.550Z,99.90
2018-11-01T14:54:38.207Z,99.90
2018-11-01T14:57:06.329Z,99.90
2018-11-01T14:59:34.414Z,99.90
2018-11-01T15:02:00.612Z,99.90
2018-11-01T15:04:28.383Z,99.90
2018-11-01T15:06:55.926Z,99.90
2018-11-01T15:09:23.603Z,99.90
2018-11-01T15:11:51.174Z,99.90
2018-11-01T15:14:18.890Z,99.90
2018-11-01T15:16:46.414Z,99.90
2018-11-01T15:19:13.999Z,99.90
2018-11-01T15:21:41.462Z,99.90
2018-11-01T15:24:09.664Z,99.90
2018-11-01T15:26:38.225Z,99.90
2018-11-01T15:29:06.810Z,99.90
2018-11-01T15:31:34.400Z,99.90
2018-11-01T15:34:03.138Z,99.90
2018-11-01T15:36:30.647Z,99.90
2018-11-01T15:38:59.195Z,99.90
2018-11-01T15:41:26.761Z,99.90
2018-11-01T15:43:54.206Z,99.90
2018-11-01T15:46:21.834Z,99.90
2018-11-01T15:48:49.381Z,99.90
2018-11-01T15:51:17.025Z,99.90
2018-11-01T15:53:44.571Z,99.90
2018-11-01T15:56:12.120Z,99.90
2018-11-01T15:58:39.761Z,99.90
2018-11-01T16:01:07.291Z,99.90
2018-11-01T16:03:34.847Z,99.90
2018-11-01T16:06:03.446Z,99.90
2018-11-01T16:08:31.023Z,99.90
2018-11-01T16:10:58.573Z,99.90
2018-11-01T16:13:26.083Z,99.90
2018-11-01T16:15:53.664Z,99.90
2018-11-01T16:18:21.162Z,99.90
2018-11-01T16:20:48.627Z,99.90
2018-11-01T16:23:16.115Z,99.90
2018-11-01T16:25:43.853Z,99.90
2018-11-01T16:28:11.371Z,99.90
2018-11-01T16:30:38.953Z,99.90
2018-11-01T16:33:06.494Z,99.90
2018-11-01T16:35:34.034Z,99.90
2018-11-01T16:38:01.683Z,99.90
2018-11-01T16:40:29.230Z,99.90
2018-11-01T16:42:56.769Z,99.90
2018-11-01T16:45:24.253Z,99.90
2018-11-01T16:47:51.738Z,99.90
2018-11-01T16:50:19.301Z,99.90
2018-11-01T16:52:47.703Z,99.90
2018-11-01T16:55:15.283Z,99.90
2018-11-01T16:57:42.834Z,99.90
2018-11-01T17:00:11.627Z,99.90
2018-11-01T17:02:39.484Z,99.90
2018-11-01T17:05:07.733Z,99.90
2018-11-01T17:07:35.362Z,99.90
2018-11-01T17:10:03.252Z,99.90
2018-11-01T17:12:30.780Z,99.90
2018-11-01T17:14:58.312Z,99.90
2018-11-01T17:17:25.804Z,99.90
2018-11-01T17:19:53.508Z,99.90
2018-11-01T17:22:21.014Z,99.90
2018-11-01T17:24:48.663Z,99.90
2018-11-01T17:27:16.202Z,99.90
2018-11-01T17:29:43.686Z,99.90
2018-11-01T17:32:11.240Z,99.90
2018-11-01T17:34:38.752Z,99.90
2018-11-01T17:37:06.400Z,99.90
2018-11-01T17:39:33.939Z,99.90
2018-11-01T17:42:01.566Z,99.90
2018-11-01T17:44:29.099Z,99.90
2018-11-01T17:46:56.947Z,99.90
2018-11-01T17:49:24.423Z,99.90
2018-11-01T17:51:52.762Z,99.90
2018-11-01T17:54:20.349Z,99.90
2018-11-01T17:56:48.060Z,99.90
2018-11-01T17:59:15.574Z,99.90
2018-11-01T18:01:43.234Z,99.90
2018-11-01T18:04:11.234Z,99.90
2018-11-01T18:06:38.988Z,99.90
2018-11-01T18:09:08.844Z,99.90
2018-11-01T18:11:36.501Z,99.90
2018-11-01T18:14:04.078Z,99.90
2018-11-01T18:16:31.707Z,99.90
2018-11-01T18:18:59.206Z,99.90
2018-11-01T18:21:26.694Z,99.90
2018-11-01T18:23:54.252Z,99.90
2018-11-01T18:26:21.740Z,99.90
2018-11-01T18:28:49.332Z,99.90
2018-11-01T18:31:16.884Z,99.90
2018-11-01T18:33:44.405Z,99.90
2018-11-01T18:36:12.094Z,99.90
2018-11-01T18:38:40.635Z,99.90
2018-11-01T18:41:08.213Z,99.90
2018-11-01T18:43:35.823Z,99.90
2018-11-01T18:46:04.483Z,99.90
2018-11-01T18:48:33.097Z,99.90
2018-11-01T18:51:00.636Z,99.90
2018-11-01T18:53:28.925Z,99.90
2018-11-01T18:55:56.421Z,99.90
2018-11-01T18:58:23.992Z,99.90
2018-11-01T19:00:51.716Z,99.90
2018-11-01T19:03:25.195Z,99.90
2018-11-01T19:05:52.686Z,99.90
2018-11-01T19:08:20.222Z,99.90
2018-11-01T19:10:47.745Z,99.90
2018-11-01T19:13:15.360Z,99.90
2018-11-01T19:15:42.962Z,99.90
2018-11-01T19:18:10.462Z,99.90
2018-11-01T19:20:38.012Z,99.90
2018-11-01T19:23:05.540Z,99.90
2018-11-01T19:25:33.882Z,99.90
2018-11-01T19:28:01.582Z,99.90
2018-11-01T19:30:29.142Z,99.90
2018-11-01T19:32:56.737Z,99.90
2018-11-01T19:35:24.260Z,99.90
2018-11-01T19:37:51.882Z,99.90
2018-11-01T19:40:19.560Z,99.90
2018-11-01T19:42:47.065Z,99.90
2018-11-01T19:45:14.624Z,99.90
2018-11-01T19:47:42.133Z,99.90
2018-11-01T19:50:11.793Z,99.90
2018-11-01T19:52:39.355Z,99.90
2018-11-01T19:55:06.981Z,99.90
2018-11-01T19:57:34.565Z,99.90
2018-11-01T20:00:02.215Z,99.90
2018-11-01T20:02:30.173Z,99.90
2018-11-01T20:04:57.685Z,99.90
2018-11-01T20:07:25.270Z,99.90
2018-11-01T20:09:52.791Z,99.90
2018-11-01T20:12:20.465Z,99.90
2018-11-01T20:14:48.076Z,99.90
2018-11-01T20:17:15.536Z,99.90
2018-11-01T20:19:43.200Z,99.90
2018-11-01T20:22:10.726Z,99.90
2018-11-01T20:24:39.264Z,99.90
2018-11-01T20:27:07.408Z,99.90
2018-11-01T20:29:35.215Z,99.90
2018-11-01T20:32:02.728Z,99.90
2018-11-01T20:34:30.373Z,99.90
2018-11-01T20:36:57.892Z,99.90
2018-11-01T20:39:25.508Z,99.90
2018-11-01T20:41:53.017Z,99.90
2018-11-01T20:44:20.534Z,99.90
2018-11-01T20:46:48.378Z,99.90
2018-11-01T20:49:15.903Z,99.90
2018-11-01T20:51:43.527Z,99.90
2018-11-01T20:54:11.531Z,99.90
2018-11-01T20:56:39.142Z,99.90
2018-11-01T20:59:06.711Z,99.90
2018-11-01T21:01:35.324Z,99.90
2018-11-01T21:04:02.916Z,99.90
2018-11-01T21:06:30.554Z,99.90
2018-11-01T21:08:58.151Z,99.90
2018-11-01T21:11:26.026Z,99.90
2018-11-01T21:13:54.797Z,99.90
2018-11-01T21:16:22.505Z,99.90
2018-11-01T21:18:50.191Z,99.90
2018-11-01T21:21:18.963Z,99.90
2018-11-01T21:23:47.578Z,99.90
2018-11-01T21:26:15.429Z,99.90
2018-11-01T21:28:43.292Z,99.90
2018-11-01T21:31:11.043Z,99.90
2018-11-01T21:33:38.568Z,99.90
2018-11-01T21:36:06.373Z,99.90
2018-11-01T21:38:33.762Z,99.90
2018-11-01T21:41:01.288Z,99.90
2018-11-01T21:43:28.890Z,99.90
2018-11-01T21:45:56.416Z,99.90
2018-11-01T21:48:24.132Z,99.90
2018-11-01T21:50:52.018Z,99.90
2018-11-01T21:53:19.565Z,99.90
2018-11-01T21:55:47.159Z,99.90
2018-11-01T21:58:14.726Z,99.90
2018-11-01T22:00:42.277Z,99.90
2018-11-01T22:03:09.816Z,99.90
2018-11-01T22:05:37.362Z,99.90
2018-11-01T22:08:04.991Z,99.90
2018-11-01T22:10:32.544Z,99.90
2018-11-01T22:13:00.150Z,99.90
2018-11-01T22:15:27.818Z,99.90
2018-11-01T22:17:55.308Z,99.90
2018-11-01T22:20:22.823Z,99.90
2018-11-01T22:22:50.410Z,99.90
2018-11-01T22:25:18.034Z,99.90
2018-11-01T22:27:45.531Z,99.90
2018-11-01T22:30:13.008Z,99.90
2018-11-01T22:32:41.487Z,99.90
2018-11-01T22:35:09.602Z,99.90
2018-11-01T22:37:37.483Z,99.90
2018-11-01T22:40:05.257Z,99.90
2018-11-01T22:42:32.921Z,99.90
2018-11-01T22:45:00.553Z,99.90
2018-11-01T22:47:28.106Z,99.90
2018-11-01T22:49:56.014Z,99.90
2018-11-01T22:52:23.790Z,99.90
2018-11-01T22:54:51.420Z,99.90
2018-11-01T22:57:18.986Z,99.90
2018-11-01T22:59:46.535Z,99.90
2018-11-01T23:02:14.100Z,99.90
2018-11-01T23:04:41.630Z,99.90
2018-11-01T23:07:09.147Z,99.90
2018-11-01T23:09:36.697Z,99.90
2018-11-01T23:12:04.846Z,99.90
2018-11-01T23:14:32.433Z,99.90
2018-11-01T23:16:59.931Z,99.90
2018-11-01T23:19:27.372Z,99.90
2018-11-01T23:21:54.885Z,99.90
2018-11-01T23:24:22.463Z,99.90
2018-11-01T23:26:50.063Z,99.90
2018-11-01T23:29:17.741Z,99.90
2018-11-01T23:31:46.301Z,99.90
2018-11-01T23:34:13.917Z,99.90
2018-11-01T23:36:47.066Z,99.90
2018-11-01T23:39:20.177Z,99.90
2018-11-01T23:41:53.494Z,99.90
2018-11-01T23:44:26.657Z,99.90
2018-11-01T23:46:59.816Z,99.90
2018-11-01T23:49:32.902Z,99.90
2018-11-01T23:52:06.441Z,99.90
2018-11-01T23:54:34.082Z,99.90
2018-11-01T23:57:01.784Z,99.90
2018-11-01T23:59:29.341Z,99.90
